createdAt,value
2022-09-23T00:01:35.546Z,6.15
2022-09-23T00:04:03.570Z,6.78
2022-09-23T00:06:30.098Z,7.95
2022-09-23T00:08:56.627Z,6.72
2022-09-23T00:11:25.225Z,6.93
2022-09-23T00:13:53.576Z,5.47
2022-09-23T00:16:21.995Z,5.97
2022-09-23T00:18:48.830Z,6.20
2022-09-23T00:21:17.520Z,9.40
2022-09-23T00:23:44.275Z,5.63
2022-09-23T00:26:14.296Z,3.97
2022-09-23T00:28:41.123Z,6.90
2022-09-23T00:31:10.477Z,6.35
2022-09-23T00:33:37.327Z,5.60
2022-09-23T00:36:06.682Z,5.95
2022-09-23T00:38:34.568Z,6.35
2022-09-23T00:41:01.151Z,7.75
2022-09-23T00:43:38.831Z,5.32
2022-09-23T00:46:07.780Z,4.50
2022-09-23T00:48:35.932Z,12.75
2022-09-23T00:51:03.030Z,4.78
2022-09-23T00:53:29.671Z,4.53
2022-09-23T00:56:01.804Z,4.75
2022-09-23T00:58:34.087Z,4.15
2022-09-23T01:01:02.241Z,5.47
2022-09-23T01:03:28.950Z,5.70
2022-09-23T01:05:56.700Z,10.32
2022-09-23T01:08:24.387Z,7.68
2022-09-23T01:11:00.225Z,6.00
2022-09-23T01:13:35.669Z,8.45
2022-09-23T01:16:08.413Z,8.05
2022-09-23T01:18:42.950Z,6.97
2022-09-23T01:21:23.383Z,7.72
2022-09-23T01:24:21.442Z,7.57
2022-09-23T01:27:14.540Z,5.70
2022-09-23T01:30:03.423Z,5.65
2022-09-23T01:32:39.698Z,8.25
2022-09-23T01:35:12.898Z,13.60
2022-09-23T01:37:48.069Z,10.35
2022-09-23T01:40:20.667Z,7.82
2022-09-23T01:42:53.823Z,4.90
2022-09-23T01:45:28.786Z,5.28
2022-09-23T01:48:02.216Z,6.10
2022-09-23T01:50:31.980Z,5.10
2022-09-23T01:53:04.708Z,4.82
2022-09-23T01:55:35.263Z,4.72
2022-09-23T01:58:07.235Z,8.88
2022-09-23T02:03:10.827Z,5.30
2022-09-23T02:05:41.170Z,4.30
2022-09-23T02:08:12.274Z,5.30
2022-09-23T02:10:44.377Z,7.25
2022-09-23T02:13:18.201Z,4.70
2022-09-23T02:15:50.415Z,7.05
2022-09-23T02:18:22.294Z,4.45
2022-09-23T02:23:22.946Z,4.25
2022-09-23T02:25:57.970Z,6.28
2022-09-23T02:28:32.384Z,5.68
2022-09-23T02:31:08.169Z,4.45
2022-09-23T02:33:43.823Z,5.72
2022-09-23T02:36:18.903Z,8.30
2022-09-23T02:38:49.586Z,11.02
2022-09-23T02:41:25.049Z,6.03
2022-09-23T02:43:57.190Z,6.55
2022-09-23T02:46:23.917Z,6.53
2022-09-23T02:48:55.218Z,8.73
2022-09-23T02:51:22.189Z,4.57
2022-09-23T02:53:48.748Z,6.75
2022-09-23T02:56:17.886Z,6.13
2022-09-23T02:58:45.165Z,11.50
2022-09-23T03:01:24.827Z,13.18
2022-09-23T03:04:04.401Z,9.90
2022-09-23T03:06:37.351Z,13.30
2022-09-23T03:09:08.539Z,9.65
2022-09-23T03:11:39.479Z,10.48
2022-09-23T03:14:15.864Z,5.38
2022-09-23T03:16:47.564Z,9.52
2022-09-23T03:19:29.041Z,9.13
2022-09-23T03:22:02.178Z,7.18
2022-09-23T03:24:30.933Z,6.72
2022-09-23T03:27:00.602Z,7.35
2022-09-23T03:29:28.239Z,15.27
2022-09-23T03:31:56.632Z,18.63
2022-09-23T03:34:28.159Z,13.07
2022-09-23T03:36:58.519Z,26.33
2022-09-23T03:39:32.585Z,18.98
2022-09-23T03:42:03.351Z,24.90
2022-09-23T03:44:33.646Z,30.90
2022-09-23T03:47:01.680Z,18.95
2022-09-23T03:49:35.015Z,13.20
2022-09-23T03:52:02.062Z,8.27
2022-09-23T03:54:28.598Z,6.18
2022-09-23T03:56:55.652Z,6.38
2022-09-23T03:59:22.318Z,5.45
2022-09-23T04:01:48.983Z,4.55
2022-09-23T04:04:15.870Z,4.70
2022-09-23T04:06:43.968Z,5.85
2022-09-23T04:09:10.782Z,6.05
2022-09-23T04:11:37.488Z,6.40
2022-09-23T04:14:04.252Z,7.68
2022-09-23T04:16:31.121Z,4.68
2022-09-23T04:18:57.895Z,6.45
2022-09-23T04:21:24.467Z,7.75
2022-09-23T04:23:52.539Z,6.13
2022-09-23T04:26:19.152Z,5.72
2022-09-23T04:28:45.661Z,5.28
2022-09-23T04:31:12.272Z,5.95
2022-09-23T04:33:38.895Z,5.05
2022-09-23T04:36:05.892Z,7.82
2022-09-23T04:38:32.669Z,4.65
2022-09-23T04:41:00.643Z,10.80
2022-09-23T04:43:27.303Z,9.10
2022-09-23T04:46:00.446Z,6.45
2022-09-23T04:48:27.757Z,7.82
2022-09-23T04:50:54.321Z,5.60
2022-09-23T04:53:20.909Z,5.70
2022-09-23T04:55:47.497Z,5.65
2022-09-23T04:58:15.423Z,5.60
2022-09-23T05:00:41.955Z,7.15
2022-09-23T05:03:08.529Z,9.75
2022-09-23T05:05:35.057Z,5.20
2022-09-23T05:08:02.080Z,4.80
2022-09-23T05:10:28.566Z,6.18
2022-09-23T05:12:57.530Z,7.50
2022-09-23T05:15:25.406Z,7.90
2022-09-23T05:17:51.986Z,5.82
2022-09-23T05:20:18.468Z,5.60
2022-09-23T05:22:45.067Z,8.23
2022-09-23T05:25:11.569Z,9.30
2022-09-23T05:27:38.249Z,11.93
2022-09-23T05:30:05.850Z,21.27
2022-09-23T05:32:33.810Z,15.95
2022-09-23T05:35:00.359Z,12.73
2022-09-23T05:37:26.977Z,12.85
2022-09-23T05:39:53.464Z,13.88
2022-09-23T05:42:20.029Z,11.80
2022-09-23T05:44:46.598Z,11.75
2022-09-23T05:47:13.241Z,10.07
2022-09-23T05:49:58.514Z,9.45
2022-09-23T05:52:26.373Z,8.23
2022-09-23T05:54:52.950Z,10.45
2022-09-23T05:57:19.567Z,8.60
2022-09-23T05:59:46.073Z,8.10
2022-09-23T06:02:12.825Z,6.07
2022-09-23T06:04:40.767Z,5.40
2022-09-23T06:07:07.369Z,5.68
2022-09-23T06:09:36.557Z,7.65
2022-09-23T06:12:04.298Z,7.32
2022-09-23T06:14:30.878Z,6.20
2022-09-23T06:16:57.498Z,6.25
2022-09-23T06:19:24.178Z,7.15
2022-09-23T06:21:52.207Z,7.90
2022-09-23T06:24:21.520Z,8.50
2022-09-23T06:26:50.490Z,7.43
2022-09-23T06:29:17.020Z,10.85
2022-09-23T06:31:43.833Z,9.90
2022-09-23T06:34:13.126Z,5.25
2022-09-23T06:36:44.447Z,5.78
2022-09-23T06:39:14.082Z,5.57
2022-09-23T06:41:40.623Z,5.63
2022-09-23T06:44:11.695Z,5.72
2022-09-23T06:46:38.429Z,5.15
2022-09-23T06:49:05.078Z,6.65
2022-09-23T06:51:31.681Z,6.13
2022-09-23T06:53:58.201Z,5.13
2022-09-23T06:56:26.472Z,5.93
2022-09-23T06:58:53.112Z,5.95
2022-09-23T07:01:19.910Z,5.90
2022-09-23T07:03:47.611Z,5.38
2022-09-23T07:06:14.623Z,6.32
2022-09-23T07:08:43.329Z,7.82
2022-09-23T07:11:10.592Z,6.93
2022-09-23T07:13:39.273Z,12.93
2022-09-23T07:16:05.892Z,7.50
2022-09-23T07:18:36.633Z,6.88
2022-09-23T07:21:08.816Z,6.07
2022-09-23T07:23:35.701Z,6.35
2022-09-23T07:26:02.176Z,7.25
2022-09-23T07:28:28.696Z,8.18
2022-09-23T07:31:00.452Z,7.47
2022-09-23T07:33:32.081Z,6.65
2022-09-23T07:35:59.420Z,7.75
2022-09-23T07:38:25.962Z,7.07
2022-09-23T07:40:52.608Z,7.10
2022-09-23T07:43:19.166Z,5.03
2022-09-23T07:45:45.722Z,8.50
2022-09-23T07:48:13.595Z,6.70
2022-09-23T07:50:40.587Z,7.07
2022-09-23T07:53:07.103Z,6.70
2022-09-23T07:55:34.840Z,7.55
2022-09-23T07:58:01.454Z,6.10
2022-09-23T08:00:28.048Z,7.35
2022-09-23T08:02:54.602Z,6.38
2022-09-23T08:05:22.690Z,6.80
2022-09-23T08:07:49.250Z,5.25
2022-09-23T08:10:15.899Z,7.97
2022-09-23T08:12:42.414Z,6.20
2022-09-23T08:15:09.705Z,5.97
2022-09-23T08:17:36.238Z,5.72
2022-09-23T08:20:03.207Z,12.38
2022-09-23T08:22:31.059Z,6.78
2022-09-23T08:24:57.632Z,5.05
2022-09-23T08:27:24.179Z,5.78
2022-09-23T08:29:50.770Z,4.45
2022-09-23T08:32:17.266Z,11.35
2022-09-23T08:34:43.909Z,5.82
2022-09-23T08:37:10.540Z,5.32
2022-09-23T08:39:38.443Z,4.18
2022-09-23T08:42:17.560Z,5.43
2022-09-23T08:44:49.199Z,4.13
2022-09-23T08:47:21.288Z,5.60
2022-09-23T08:49:57.044Z,10.50
2022-09-23T08:52:32.601Z,4.53
2022-09-23T08:55:01.531Z,6.03
2022-09-23T08:57:38.673Z,7.88
2022-09-23T09:00:06.409Z,5.30
2022-09-23T09:02:35.129Z,4.22
2022-09-23T09:05:06.004Z,5.15
2022-09-23T09:07:37.294Z,7.43
2022-09-23T09:12:42.002Z,4.35
2022-09-23T09:15:13.244Z,4.30
2022-09-23T09:17:48.595Z,5.95
2022-09-23T09:20:38.416Z,4.97
2022-09-23T09:23:15.393Z,3.60
2022-09-23T09:25:45.779Z,4.75
2022-09-23T09:28:23.633Z,5.05
2022-09-23T09:30:55.468Z,4.43
2022-09-23T09:33:27.561Z,5.18
2022-09-23T09:36:07.329Z,6.28
2022-09-23T09:38:34.249Z,6.47
2022-09-23T09:41:12.259Z,4.18
2022-09-23T09:43:44.023Z,5.90
2022-09-23T09:49:42.583Z,4.18
2022-09-23T09:52:21.921Z,6.38
2022-09-23T09:54:49.365Z,4.57
2022-09-23T09:57:25.959Z,6.15
2022-09-23T09:59:52.617Z,4.55
2022-09-23T10:02:27.734Z,4.85
2022-09-23T10:04:58.544Z,4.55
2022-09-23T10:07:27.256Z,5.97
2022-09-23T10:09:55.768Z,4.65
2022-09-23T10:12:26.666Z,5.82
2022-09-23T10:14:56.543Z,5.53
2022-09-23T10:17:26.862Z,5.97
2022-09-23T10:19:56.954Z,4.32
2022-09-23T10:22:25.804Z,7.03
2022-09-23T10:24:54.381Z,6.40
2022-09-23T10:27:32.994Z,4.60
2022-09-23T10:30:02.087Z,5.97
2022-09-23T10:32:31.457Z,6.45
2022-09-23T10:35:01.952Z,5.05
2022-09-23T10:37:38.014Z,4.93
2022-09-23T10:40:17.136Z,4.30
2022-09-23T10:42:57.361Z,4.85
2022-09-23T10:45:27.043Z,5.63
2022-09-23T10:48:03.123Z,7.78
2022-09-23T10:50:37.687Z,4.88
2022-09-23T10:53:12.569Z,4.55
2022-09-23T10:55:52.369Z,4.72
2022-09-23T10:59:00.804Z,7.05
2022-09-23T11:01:38.661Z,3.58
2022-09-23T11:04:35.444Z,7.30
2022-09-23T11:07:17.802Z,8.13
2022-09-23T11:10:02.167Z,4.28
2022-09-23T11:12:39.806Z,4.45
2022-09-23T11:15:26.362Z,6.05
2022-09-23T11:18:20.363Z,4.00
2022-09-23T11:20:59.301Z,5.45
2022-09-23T11:23:40.728Z,4.80
2022-09-23T11:26:19.853Z,8.52
2022-09-23T11:29:08.467Z,4.68
2022-09-23T11:31:48.519Z,3.63
2022-09-23T11:34:32.667Z,3.70
2022-09-23T11:37:03.160Z,4.28
2022-09-23T11:39:35.304Z,3.77
2022-09-23T11:42:04.768Z,3.95
2022-09-23T11:44:37.255Z,6.18
2022-09-23T11:47:09.801Z,4.55
2022-09-23T11:49:40.237Z,2.75
2022-09-23T11:52:13.145Z,2.83
2022-09-23T11:54:46.566Z,3.25
2022-09-23T11:57:26.977Z,6.20
2022-09-23T12:00:00.324Z,3.80
2022-09-23T12:02:33.404Z,3.85
2022-09-23T12:05:05.802Z,3.95
2022-09-23T12:07:44.039Z,2.67
2022-09-23T12:10:11.758Z,3.58
2022-09-23T12:12:44.566Z,4.70
2022-09-23T12:15:22.746Z,3.90
2022-09-23T12:18:17.450Z,2.40
2022-09-23T12:21:00.790Z,3.05
2022-09-23T12:23:46.102Z,3.67
2022-09-23T12:26:17.153Z,3.95
2022-09-23T12:28:45.907Z,3.60
2022-09-23T12:31:17.299Z,7.20
2022-09-23T12:33:52.198Z,4.53
2022-09-23T12:36:26.355Z,2.90
2022-09-23T12:38:57.974Z,2.65
2022-09-23T12:41:29.055Z,3.13
2022-09-23T12:44:00.336Z,4.70
2022-09-23T12:46:27.785Z,7.32
2022-09-23T12:49:04.576Z,2.58
2022-09-23T12:51:32.485Z,5.30
2022-09-23T12:54:20.262Z,4.70
2022-09-23T12:57:09.321Z,2.13
2022-09-23T12:59:56.000Z,2.80
2022-09-23T13:02:35.807Z,3.17
2022-09-23T13:05:19.963Z,3.17
2022-09-23T13:07:48.667Z,4.35
2022-09-23T13:10:22.589Z,2.53
2022-09-23T13:12:50.813Z,2.75
2022-09-23T13:15:26.437Z,2.88
2022-09-23T13:17:53.052Z,3.55
2022-09-23T13:20:37.270Z,2.70
2022-09-23T13:23:21.326Z,3.65
2022-09-23T13:25:48.988Z,3.92
2022-09-23T13:28:26.048Z,3.03
2022-09-23T13:30:53.063Z,3.08
2022-09-23T13:33:27.173Z,2.63
2022-09-23T13:35:59.640Z,3.30
2022-09-23T13:38:29.022Z,1.90
2022-09-23T13:40:58.203Z,3.03
2022-09-23T13:43:29.243Z,4.88
2022-09-23T13:45:55.884Z,4.35
2022-09-23T13:48:25.402Z,2.47
2022-09-23T13:50:55.483Z,3.42
2022-09-23T13:53:25.761Z,4.18
2022-09-23T13:56:04.667Z,2.83
2022-09-23T13:58:32.727Z,3.13
2022-09-23T14:00:59.671Z,4.32
2022-09-23T14:03:33.669Z,3.95
2022-09-23T14:06:07.413Z,2.90
2022-09-23T14:11:00.801Z,3.28
2022-09-23T14:13:29.447Z,3.28
2022-09-23T14:15:58.549Z,2.42
2022-09-23T14:18:36.294Z,2.80
2022-09-23T14:21:04.847Z,3.63
2022-09-23T14:23:31.471Z,4.63
2022-09-23T14:25:59.006Z,5.18
2022-09-23T14:28:27.274Z,2.70
2022-09-23T14:30:55.714Z,3.95
2022-09-23T14:33:26.479Z,2.95
2022-09-23T14:35:56.489Z,3.45
2022-09-23T14:38:29.256Z,3.90
2022-09-23T14:40:58.208Z,4.10
2022-09-23T14:43:27.612Z,5.55
2022-09-23T14:45:55.949Z,2.88
2022-09-23T14:48:25.378Z,3.53
2022-09-23T14:50:57.030Z,3.83
2022-09-23T14:53:37.103Z,3.28
2022-09-23T14:56:16.180Z,4.88
2022-09-23T14:58:51.725Z,5.28
2022-09-23T15:01:26.439Z,4.45
2022-09-23T15:03:53.540Z,3.22
2022-09-23T15:06:22.603Z,2.78
2022-09-23T15:08:51.703Z,4.50
2022-09-23T15:11:19.610Z,2.78
2022-09-23T15:13:49.868Z,2.60
2022-09-23T15:16:24.079Z,4.65
2022-09-23T15:18:54.529Z,4.60
2022-09-23T15:21:21.583Z,3.60
2022-09-23T15:23:51.953Z,2.67
2022-09-23T15:26:21.053Z,4.82
2022-09-23T15:28:48.554Z,2.17
2022-09-23T15:31:16.630Z,4.80
2022-09-23T15:33:43.825Z,4.18
2022-09-23T15:36:16.392Z,3.85
2022-09-23T15:38:43.723Z,3.75
2022-09-23T15:41:12.247Z,2.83
2022-09-23T15:43:39.393Z,3.72
2022-09-23T15:46:08.115Z,3.85
2022-09-23T15:48:38.621Z,4.70
2022-09-23T15:51:07.417Z,2.55
2022-09-23T15:53:35.415Z,2.38
2022-09-23T15:56:02.158Z,3.67
2022-09-23T15:58:30.152Z,3.30
2022-09-23T16:00:57.468Z,5.32
2022-09-23T16:03:24.715Z,3.45
2022-09-23T16:05:51.769Z,3.58
2022-09-23T16:08:18.310Z,3.55
2022-09-23T16:10:44.842Z,3.83
2022-09-23T16:13:13.553Z,2.75
2022-09-23T16:15:41.805Z,4.50
2022-09-23T16:18:10.037Z,3.20
2022-09-23T16:20:39.460Z,3.63
2022-09-23T16:23:08.518Z,2.70
2022-09-23T16:25:36.683Z,3.92
2022-09-23T16:28:04.440Z,5.10
2022-09-23T16:30:32.564Z,6.43
2022-09-23T16:33:00.510Z,6.10
2022-09-23T16:35:28.639Z,4.53
2022-09-23T16:37:55.296Z,3.55
2022-09-23T16:40:23.175Z,4.65
2022-09-23T16:42:51.326Z,5.70
2022-09-23T16:45:20.822Z,6.03
2022-09-23T16:47:49.167Z,5.07
2022-09-23T16:50:18.661Z,5.45
2022-09-23T16:52:45.227Z,5.70
2022-09-23T16:55:13.768Z,8.10
2022-09-23T16:57:41.858Z,8.73
2022-09-23T17:00:13.284Z,5.72
2022-09-23T17:02:40.079Z,4.45
2022-09-23T17:05:07.245Z,4.47
2022-09-23T17:07:35.136Z,4.13
2022-09-23T17:10:01.681Z,3.42
2022-09-23T17:12:30.778Z,2.85
2022-09-23T17:14:57.468Z,3.53
2022-09-23T17:17:24.018Z,4.10
2022-09-23T17:19:50.517Z,3.40
2022-09-23T17:22:17.089Z,3.85
2022-09-23T17:24:45.128Z,6.13
2022-09-23T17:27:11.770Z,5.00
2022-09-23T17:29:38.267Z,7.35
2022-09-23T17:32:04.897Z,4.57
2022-09-23T17:34:31.393Z,5.40
2022-09-23T17:36:57.981Z,4.97
2022-09-23T17:39:24.472Z,7.53
2022-09-23T17:41:52.450Z,5.30
2022-09-23T17:44:19.013Z,6.10
2022-09-23T17:46:45.565Z,5.55
2022-09-23T17:49:12.078Z,3.83
2022-09-23T17:51:38.629Z,5.72
2022-09-23T17:54:05.213Z,4.70
2022-09-23T17:56:31.775Z,8.07
2022-09-23T17:59:01.672Z,4.60
2022-09-23T18:01:28.891Z,5.53
2022-09-23T18:03:57.079Z,5.78
2022-09-23T18:06:25.357Z,5.68
2022-09-23T18:08:52.488Z,3.80
2022-09-23T18:11:21.638Z,6.75
2022-09-23T18:13:50.582Z,7.80
2022-09-23T18:16:19.347Z,6.72
2022-09-23T18:18:50.113Z,8.27
2022-09-23T18:21:16.772Z,8.32
2022-09-23T18:23:43.278Z,7.82
2022-09-23T18:26:13.913Z,8.15
2022-09-23T18:28:40.402Z,7.40
2022-09-23T18:31:06.888Z,7.55
2022-09-23T18:33:34.725Z,10.88
2022-09-23T18:36:01.750Z,7.53
2022-09-23T18:38:28.273Z,8.05
2022-09-23T18:40:56.966Z,5.55
2022-09-23T18:43:25.859Z,6.60
2022-09-23T18:45:56.889Z,3.75
2022-09-23T18:48:23.463Z,6.57
2022-09-23T18:50:51.374Z,12.55
2022-09-23T18:53:17.886Z,8.85
2022-09-23T18:55:44.403Z,7.03
2022-09-23T18:58:10.889Z,9.25
2022-09-23T19:00:37.563Z,5.57
2022-09-23T19:03:04.370Z,6.05
2022-09-23T19:05:33.290Z,4.25
2022-09-23T19:08:01.747Z,10.95
2022-09-23T19:10:28.405Z,9.40
2022-09-23T19:12:54.900Z,14.32
2022-09-23T19:15:21.394Z,15.07
2022-09-23T19:17:47.894Z,13.80
2022-09-23T19:20:14.466Z,12.90
2022-09-23T19:22:45.625Z,11.43
2022-09-23T19:25:13.665Z,9.05
2022-09-23T19:27:40.173Z,6.90
2022-09-23T19:30:08.191Z,4.97
2022-09-23T19:32:34.693Z,4.15
2022-09-23T19:35:01.276Z,5.68
2022-09-23T19:37:27.802Z,5.80
2022-09-23T19:39:54.345Z,8.23
2022-09-23T19:42:22.188Z,10.32
2022-09-23T19:44:48.810Z,10.82
2022-09-23T19:47:15.401Z,6.55
2022-09-23T19:49:42.061Z,7.15
2022-09-23T19:52:08.570Z,7.05
2022-09-23T19:54:35.115Z,7.85
2022-09-23T19:57:01.649Z,9.63
2022-09-23T19:59:29.582Z,9.27
2022-09-23T20:01:56.205Z,8.38
2022-09-23T20:04:22.837Z,9.45
2022-09-23T20:06:49.369Z,9.82
2022-09-23T20:09:15.940Z,5.78
2022-09-23T20:11:42.544Z,7.18
2022-09-23T20:14:10.118Z,6.72
2022-09-23T20:16:38.245Z,6.20
2022-09-23T20:19:05.211Z,9.07
2022-09-23T20:21:31.980Z,8.20
2022-09-23T20:23:58.751Z,9.77
2022-09-23T20:26:25.361Z,16.63
2022-09-23T20:28:52.169Z,12.88
2022-09-23T20:31:19.913Z,11.77
2022-09-23T20:33:51.234Z,7.25
2022-09-23T20:36:18.072Z,7.13
2022-09-23T20:38:44.615Z,6.68
2022-09-23T20:41:11.349Z,5.15
2022-09-23T20:43:37.893Z,6.75
2022-09-23T20:46:05.321Z,6.25
2022-09-23T20:48:31.924Z,6.47
2022-09-23T20:51:04.091Z,8.25
2022-09-23T20:53:31.426Z,8.18
2022-09-23T20:55:59.003Z,10.70
2022-09-23T20:58:26.572Z,11.00
2022-09-23T21:00:53.383Z,7.80
2022-09-23T21:03:19.986Z,5.63
2022-09-23T21:05:46.532Z,8.00
2022-09-23T21:08:15.670Z,10.43
2022-09-23T21:10:42.189Z,6.05
2022-09-23T21:13:08.770Z,6.25
2022-09-23T21:15:35.520Z,5.45
2022-09-23T21:18:02.078Z,5.80
2022-09-23T21:20:28.578Z,6.63
2022-09-23T21:22:55.099Z,5.57
2022-09-23T21:25:27.928Z,5.40
2022-09-23T21:27:54.850Z,4.82
2022-09-23T21:30:21.333Z,6.20
2022-09-23T21:32:47.903Z,6.07
2022-09-23T21:35:14.543Z,6.82
2022-09-23T21:37:41.302Z,7.65
2022-09-23T21:40:08.872Z,6.68
2022-09-23T21:42:36.874Z,5.47
2022-09-23T21:45:03.670Z,7.60
2022-09-23T21:47:30.308Z,8.60
2022-09-23T21:49:56.811Z,4.80
2022-09-23T21:52:23.462Z,7.30
2022-09-23T21:54:49.971Z,6.00
2022-09-23T21:57:16.568Z,4.80
2022-09-23T21:59:44.408Z,5.50
2022-09-23T22:02:10.952Z,5.80
2022-09-23T22:04:37.566Z,6.10
2022-09-23T22:07:04.146Z,8.43
2022-09-23T22:09:30.658Z,7.30
2022-09-23T22:11:57.285Z,11.27
2022-09-23T22:14:24.638Z,5.43
2022-09-23T22:16:53.591Z,6.22
2022-09-23T22:19:20.128Z,6.30
2022-09-23T22:21:46.737Z,5.63
2022-09-23T22:24:13.310Z,6.75
2022-09-23T22:26:42.395Z,8.77
2022-09-23T22:29:10.771Z,5.03
2022-09-23T22:31:37.438Z,5.93
2022-09-23T22:34:05.439Z,11.23
2022-09-23T22:36:32.068Z,5.47
2022-09-23T22:38:59.392Z,6.05
2022-09-23T22:41:26.081Z,5.63
2022-09-23T22:43:52.652Z,7.75
2022-09-23T22:46:19.418Z,7.82
2022-09-23T22:48:45.967Z,8.35
2022-09-23T22:51:13.856Z,7.03
2022-09-23T22:53:40.355Z,5.40
2022-09-23T22:56:07.138Z,5.18
2022-09-23T22:58:33.644Z,7.90
2022-09-23T23:01:00.237Z,5.93
2022-09-23T23:03:26.846Z,7.78
2022-09-23T23:05:53.894Z,6.75
2022-09-23T23:08:21.796Z,7.68
2022-09-23T23:10:48.354Z,6.53
2022-09-23T23:13:14.837Z,6.43
2022-09-23T23:15:41.818Z,6.88
2022-09-23T23:18:08.417Z,8.38
2022-09-23T23:20:34.954Z,7.68
2022-09-23T23:23:01.508Z,6.43
2022-09-23T23:25:29.598Z,4.70
2022-09-23T23:27:56.432Z,6.90
2022-09-23T23:30:23.612Z,5.45
2022-09-23T23:32:50.328Z,8.02
2022-09-23T23:35:17.019Z,5.57
2022-09-23T23:37:43.531Z,6.20
2022-09-23T23:40:10.859Z,5.20
2022-09-23T23:42:39.195Z,6.82
2022-09-23T23:45:06.945Z,6.15
2022-09-23T23:47:33.559Z,6.95
2022-09-23T23:50:00.092Z,8.02
2022-09-23T23:52:26.585Z,5.85
2022-09-23T23:54:53.189Z,6.97
2022-09-23T23:57:19.718Z,7.38
2022-09-23T23:59:47.654Z,6.82
